createdAt,value
2018-01-10T00:00:13.040Z,44.9
2018-01-10T00:01:14.657Z,44.9
2018-01-10T00:02:16.551Z,44.9
2018-01-10T00:03:18.165Z,44.9
2018-01-10T00:04:19.781Z,44.9
2018-01-10T00:05:21.403Z,45.2
2018-01-10T00:06:22.740Z,44.9
2018-01-10T00:07:24.361Z,44.7
2018-01-10T00:08:26.265Z,44.8
2018-01-10T00:09:27.862Z,44.9
2018-01-10T00:10:28.905Z,44.8
2018-01-10T00:11:30.797Z,44.9
2018-01-10T00:12:31.562Z,45.3
2018-01-10T00:13:32.909Z,44.9
2018-01-10T00:14:33.949Z,45.1
2018-01-10T00:15:35.284Z,44.9
2018-01-10T00:16:37.181Z,45.4
2018-01-10T00:17:39.074Z,44.8
2018-01-10T00:18:40.408Z,45.3
2018-01-10T00:19:42.001Z,44.8
2018-01-10T00:20:43.320Z,44.8
2018-01-10T00:21:44.648Z,45.3
2018-01-10T00:22:46.531Z,45.3
2018-01-10T00:23:48.150Z,45.3
2018-01-10T00:24:49.766Z,45
2018-01-10T00:25:51.660Z,45.1
2018-01-10T00:26:53.551Z,45.3
2018-01-10T00:27:55.481Z,45.1
2018-01-10T00:28:57.101Z,45.4
2018-01-10T00:29:58.712Z,45.3
2018-01-10T00:31:00.344Z,44.9
2018-01-10T00:32:01.384Z,45.1
2018-01-10T00:33:02.999Z,45.3
2018-01-10T00:34:04.616Z,45
2018-01-10T00:35:06.234Z,45.1
2018-01-10T00:36:07.572Z,45.2
2018-01-10T00:37:09.169Z,45.4
2018-01-10T00:38:10.789Z,45.1
2018-01-10T00:39:12.408Z,45.1
2018-01-10T00:40:13.751Z,45
2018-01-10T00:41:15.344Z,45.1
2018-01-10T00:42:17.236Z,45.2
2018-01-10T00:43:19.128Z,45.1
2018-01-10T00:44:20.450Z,45.2
2018-01-10T00:45:21.771Z,45.4
2018-01-10T00:46:23.666Z,45.4
2018-01-10T00:47:25.564Z,45.4
2018-01-10T00:48:27.220Z,45.4
2018-01-10T00:49:28.282Z,45.4
2018-01-10T00:50:29.897Z,45.1
2018-01-10T00:51:31.794Z,45.3
2018-01-10T00:52:33.112Z,45.3
2018-01-10T00:53:34.731Z,45.4
2018-01-10T00:54:36.345Z,45.3
2018-01-10T00:55:37.952Z,45
2018-01-10T00:56:39.013Z,45
2018-01-10T00:57:40.330Z,45.3
2018-01-10T00:58:42.224Z,45.4
2018-01-10T00:59:43.823Z,45.5
2018-01-10T01:02:45.619Z,45.3
2018-01-10T01:03:47.234Z,45.5
2018-01-10T01:04:49.131Z,45.2
2018-01-10T01:05:50.520Z,45.3
2018-01-10T01:06:52.445Z,45.1
2018-01-10T01:07:54.050Z,45.3
2018-01-10T01:08:55.974Z,45.3
2018-01-10T01:09:57.290Z,45.4
2018-01-10T01:10:58.610Z,45.3
2018-01-10T01:12:00.504Z,45.3
2018-01-10T01:13:02.098Z,45.1
2018-01-10T01:14:03.422Z,45.3
2018-01-10T01:15:04.760Z,45.3
2018-01-10T01:16:06.090Z,45.2
2018-01-10T01:17:07.685Z,45.2
2018-01-10T01:18:09.575Z,45.4
2018-01-10T01:19:11.171Z,45.1
2018-01-10T01:20:12.789Z,45.3
2018-01-10T01:21:13.828Z,45.4
2018-01-10T01:22:15.446Z,45.3
2018-01-10T01:23:17.064Z,45.3
2018-01-10T01:24:18.684Z,45.5
2018-01-10T01:25:20.578Z,45.4
2018-01-10T01:26:21.615Z,45.2
2018-01-10T01:27:23.510Z,45.4
2018-01-10T01:28:25.404Z,45.5
2018-01-10T01:29:27.298Z,45.4
2018-01-10T01:30:28.891Z,45.4
2018-01-10T01:31:30.513Z,45.4
2018-01-10T01:32:31.555Z,45.3
2018-01-10T01:33:33.172Z,45.1
2018-01-10T01:34:34.790Z,45.3
2018-01-10T01:35:36.684Z,45.4
2018-01-10T01:36:38.303Z,45.3
2018-01-10T01:37:39.645Z,45.1
2018-01-10T01:38:41.263Z,45.2
2018-01-10T01:39:42.920Z,45.4
2018-01-10T01:40:44.814Z,45.3
2018-01-10T01:41:46.432Z,45.3
2018-01-10T01:42:47.469Z,45.3
2018-01-10T01:43:49.366Z,45.2
2018-01-10T01:44:50.978Z,45.3
2018-01-10T01:45:52.884Z,45.1
2018-01-10T01:46:54.486Z,45.3
2018-01-10T01:47:56.385Z,45.4
2018-01-10T01:48:58.058Z,45.4
2018-01-10T01:49:59.677Z,45.3
2018-01-10T01:51:01.275Z,45.3
2018-01-10T01:52:03.172Z,45.4
2018-01-10T01:53:04.766Z,45.3
2018-01-10T01:54:06.361Z,45.5
2018-01-10T01:55:07.978Z,45.3
2018-01-10T01:56:09.876Z,45.3
2018-01-10T01:57:11.504Z,45.5
2018-01-10T01:58:12.812Z,45.2
2018-01-10T01:59:14.711Z,45.4
2018-01-10T02:00:16.606Z,45.3
2018-01-10T02:01:18.242Z,45.2
2018-01-10T02:02:19.900Z,45.2
2018-01-10T02:03:21.216Z,45.6
2018-01-10T02:04:22.837Z,45.2
2018-01-10T02:05:24.734Z,45.2
2018-01-10T02:06:26.637Z,45.2
2018-01-10T02:07:28.258Z,45.2
2018-01-10T02:08:30.157Z,45.6
2018-01-10T02:09:31.202Z,45.2
2018-01-10T02:10:32.823Z,45.4
2018-01-10T02:11:34.165Z,45.2
2018-01-10T02:12:35.485Z,45.2
2018-01-10T02:13:37.102Z,45.2
2018-01-10T02:14:38.999Z,45.2
2018-01-10T02:15:40.598Z,45.6
2018-01-10T02:16:41.919Z,45.4
2018-01-10T02:17:43.825Z,45.2
2018-01-10T02:18:45.438Z,45.4
2018-01-10T02:19:47.106Z,45.4
2018-01-10T02:20:48.688Z,45.2
2018-01-10T02:21:50.585Z,45.3
2018-01-10T02:22:52.192Z,45.4
2018-01-10T02:23:53.811Z,45.4
2018-01-10T02:24:55.157Z,45.8
2018-01-10T02:25:57.049Z,45.5
2018-01-10T02:26:58.097Z,45.3
2018-01-10T02:27:59.698Z,45.4
2018-01-10T02:29:01.595Z,45.6
2018-01-10T02:30:03.212Z,45.8
2018-01-10T02:31:04.846Z,45.7
2018-01-10T02:32:06.184Z,45.5
2018-01-10T02:33:07.525Z,45.7
2018-01-10T02:34:09.122Z,45.4
2018-01-10T02:35:11.020Z,45.7
2018-01-10T02:36:12.641Z,45.8
2018-01-10T02:37:14.255Z,45.5
2018-01-10T02:38:15.573Z,45.5
2018-01-10T02:39:17.189Z,45.8
2018-01-10T02:40:19.085Z,45.8
2018-01-10T02:41:20.702Z,45.8
2018-01-10T02:42:21.766Z,45.8
2018-01-10T02:43:23.664Z,45.4
2018-01-10T02:44:24.988Z,45.7
2018-01-10T02:45:26.884Z,45.8
2018-01-10T02:46:28.780Z,45.8
2018-01-10T02:47:29.545Z,46
2018-01-10T02:48:31.171Z,45.6
2018-01-10T02:49:32.511Z,45.8
2018-01-10T02:50:33.862Z,45.4
2018-01-10T02:51:35.461Z,45.4
2018-01-10T02:52:36.803Z,45.4
2018-01-10T02:53:38.696Z,45.8
2018-01-10T02:54:40.312Z,45.5
2018-01-10T02:55:41.628Z,45.7
2018-01-10T02:56:43.248Z,45.7
2018-01-10T02:57:44.868Z,45.6
2018-01-10T02:58:46.784Z,45.7
2018-01-10T02:59:47.826Z,45.8
2018-01-10T03:00:48.873Z,45.8
2018-01-10T03:01:50.778Z,45.8
2018-01-10T03:02:52.677Z,45.7
2018-01-10T03:03:54.296Z,45.8
2018-01-10T03:04:56.200Z,45.8
2018-01-10T03:05:58.106Z,45.7
2018-01-10T03:07:00.002Z,45.7
2018-01-10T03:08:01.607Z,45.7
2018-01-10T03:09:03.508Z,45.7
2018-01-10T03:10:04.845Z,45.7
2018-01-10T03:11:06.460Z,45.7
2018-01-10T03:12:08.061Z,45.7
2018-01-10T03:13:09.959Z,45.7
2018-01-10T03:14:11.576Z,45.8
2018-01-10T03:15:12.916Z,45.8
2018-01-10T03:16:14.288Z,45.8
2018-01-10T03:17:15.616Z,45.7
2018-01-10T03:18:17.233Z,45.7
2018-01-10T03:19:18.854Z,45.7
2018-01-10T03:20:20.475Z,45.7
2018-01-10T03:21:22.126Z,45.6
2018-01-10T03:22:24.024Z,45.7
2018-01-10T03:23:25.914Z,45.7
2018-01-10T03:24:27.536Z,46
2018-01-10T03:25:28.855Z,45.7
2018-01-10T03:26:30.751Z,45.8
2018-01-10T03:27:32.370Z,45.9
2018-01-10T03:28:33.448Z,45.8
2018-01-10T03:29:35.350Z,45.9
2018-01-10T03:30:36.981Z,45.9
2018-01-10T03:31:38.310Z,45.8
2018-01-10T03:32:39.656Z,46
2018-01-10T03:33:41.273Z,45.7
2018-01-10T03:34:43.170Z,45.6
2018-01-10T03:35:44.789Z,45.9
2018-01-10T03:36:46.407Z,45.9
2018-01-10T03:37:48.305Z,45.9
2018-01-10T03:38:49.930Z,45.8
2018-01-10T03:39:51.560Z,45.8
2018-01-10T03:40:53.459Z,45.7
2018-01-10T03:41:55.356Z,46
2018-01-10T03:42:56.676Z,45.7
2018-01-10T03:43:58.572Z,45.7
2018-01-10T03:44:59.918Z,45.7
2018-01-10T03:46:01.812Z,45.9
2018-01-10T03:47:03.444Z,45.8
2018-01-10T03:48:04.484Z,45.9
2018-01-10T03:49:05.526Z,45.9
2018-01-10T03:50:07.126Z,45.9
2018-01-10T03:51:08.463Z,45.7
2018-01-10T03:52:10.364Z,45.9
2018-01-10T03:53:12.286Z,45.9
2018-01-10T03:54:14.182Z,45.9
2018-01-10T03:55:16.078Z,45.9
2018-01-10T03:56:17.698Z,45.7
2018-01-10T03:57:19.596Z,45.9
2018-01-10T03:58:21.496Z,45.7
2018-01-10T03:59:23.397Z,46
2018-01-10T04:00:24.711Z,45.9
2018-01-10T04:01:26.603Z,46
2018-01-10T04:02:28.497Z,45.8
2018-01-10T04:03:30.119Z,45.9
2018-01-10T04:04:31.716Z,45.7
2018-01-10T04:05:33.335Z,45.9
2018-01-10T04:06:34.676Z,45.8
2018-01-10T04:07:36.020Z,45.8
2018-01-10T04:08:37.918Z,45.8
2018-01-10T04:09:39.818Z,45.9
2018-01-10T04:10:41.714Z,45.9
2018-01-10T04:11:43.333Z,45.8
2018-01-10T04:12:44.962Z,45.8
2018-01-10T04:13:46.877Z,45.8
2018-01-10T04:14:48.558Z,45.8
2018-01-10T04:15:50.177Z,45.7
2018-01-10T04:16:51.515Z,45.6
2018-01-10T04:17:53.135Z,45.8
2018-01-10T04:18:54.734Z,45.7
2018-01-10T04:19:56.358Z,45.7
2018-01-10T04:20:58.252Z,45.7
2018-01-10T04:21:59.611Z,45.9
2018-01-10T04:23:01.208Z,45.9
2018-01-10T04:24:02.531Z,45.9
2018-01-10T04:25:04.150Z,45.9
2018-01-10T04:26:05.768Z,46
2018-01-10T04:27:07.091Z,45.9
2018-01-10T04:28:08.132Z,46
2018-01-10T04:29:09.473Z,46.1
2018-01-10T04:30:10.557Z,46
2018-01-10T04:31:12.157Z,46
2018-01-10T04:32:14.055Z,46
2018-01-10T04:33:15.674Z,45.9
2018-01-10T04:34:17.016Z,46
2018-01-10T04:35:18.922Z,45.8
2018-01-10T04:36:20.817Z,45.8
2018-01-10T04:37:22.136Z,45.8
2018-01-10T04:38:23.756Z,45.8
2018-01-10T04:39:25.373Z,45.8
2018-01-10T04:40:26.718Z,45.9
2018-01-10T04:41:27.763Z,46
2018-01-10T04:42:29.381Z,46.1
2018-01-10T04:43:31.000Z,46.1
2018-01-10T04:44:32.044Z,46.1
2018-01-10T04:45:33.656Z,45.8
2018-01-10T04:46:34.713Z,45.8
2018-01-10T04:47:35.759Z,45.8
2018-01-10T04:48:37.376Z,46.1
2018-01-10T04:49:39.274Z,46.1
2018-01-10T04:50:40.904Z,46.1
2018-01-10T04:51:42.801Z,46.2
2018-01-10T04:52:44.696Z,45.8
2018-01-10T04:53:46.295Z,45.8
2018-01-10T04:54:47.915Z,45.8
2018-01-10T04:55:49.246Z,45.8
2018-01-10T04:56:51.162Z,45.9
2018-01-10T04:57:53.055Z,45.8
2018-01-10T04:58:54.696Z,45.8
2018-01-10T04:59:56.312Z,45.8
2018-01-10T05:00:58.242Z,45.8
2018-01-10T05:01:59.861Z,45.9
2018-01-10T05:03:01.480Z,45.8
2018-01-10T05:04:03.077Z,45.8
2018-01-10T05:05:04.701Z,45.8
2018-01-10T05:06:06.300Z,45.8
2018-01-10T05:07:07.896Z,45.8
2018-01-10T05:08:09.794Z,45.8
2018-01-10T05:09:11.693Z,45.8
2018-01-10T05:10:13.016Z,45.8
2018-01-10T05:11:14.910Z,45.8
2018-01-10T05:12:16.530Z,46
2018-01-10T05:13:18.149Z,45.9
2018-01-10T05:14:20.046Z,45.8
2018-01-10T05:15:21.665Z,45.8
2018-01-10T05:16:23.562Z,45.8
2018-01-10T05:17:25.180Z,46.2
2018-01-10T05:18:26.796Z,45.8
2018-01-10T05:19:28.412Z,46.2
2018-01-10T05:20:30.007Z,45.8
2018-01-10T05:21:31.900Z,45.8
2018-01-10T05:22:33.516Z,45.8
2018-01-10T05:23:35.136Z,45.8
2018-01-10T05:24:37.029Z,45.8
2018-01-10T05:25:38.628Z,45.8
2018-01-10T05:26:40.523Z,45.8
2018-01-10T05:27:42.418Z,45.8
2018-01-10T05:28:44.323Z,45.8
2018-01-10T05:29:46.219Z,45.8
2018-01-10T05:30:47.819Z,45.9
2018-01-10T05:31:49.731Z,45.8
2018-01-10T05:32:51.334Z,46.1
2018-01-10T05:33:52.953Z,46.1
2018-01-10T05:34:54.295Z,46.1
2018-01-10T05:35:55.894Z,45.8
2018-01-10T05:36:57.513Z,45.8
2018-01-10T05:37:59.132Z,46.2
2018-01-10T05:39:01.030Z,45.8
2018-01-10T05:40:02.648Z,46.2
2018-01-10T05:41:03.717Z,46.2
2018-01-10T05:42:05.600Z,45.9
2018-01-10T05:43:07.218Z,46.1
2018-01-10T05:44:08.561Z,45.6
2018-01-10T05:45:10.456Z,46
2018-01-10T05:46:11.777Z,45.9
2018-01-10T05:47:13.685Z,45.6
2018-01-10T05:48:15.012Z,45.8
2018-01-10T05:49:16.053Z,45.7
2018-01-10T05:50:17.692Z,45.9
2018-01-10T05:51:19.588Z,45.6
2018-01-10T05:52:21.209Z,45.7
2018-01-10T05:53:23.108Z,45.9
2018-01-10T05:54:24.734Z,46
2018-01-10T05:55:26.625Z,46
2018-01-10T05:56:28.244Z,46.2
2018-01-10T05:57:30.156Z,46.2
2018-01-10T05:58:31.473Z,45.8
2018-01-10T05:59:33.371Z,46.2
2018-01-10T06:00:35.267Z,45.8
2018-01-10T06:01:36.866Z,46.2
2018-01-10T06:02:38.488Z,45.8
2018-01-10T06:03:39.553Z,45.9
2018-01-10T06:04:41.151Z,46.1
2018-01-10T06:05:43.044Z,46.1
2018-01-10T06:06:44.426Z,46.2
2018-01-10T06:07:45.764Z,46.2
2018-01-10T06:08:47.659Z,46.2
2018-01-10T06:09:49.001Z,46.1
2018-01-10T06:10:50.620Z,46.2
2018-01-10T06:11:52.245Z,46.2
2018-01-10T06:12:53.858Z,46.1
2018-01-10T06:13:55.754Z,46
2018-01-10T06:14:57.647Z,46.1
2018-01-10T06:15:59.252Z,45.9
2018-01-10T06:17:01.147Z,46.2
2018-01-10T06:18:02.764Z,45.8
2018-01-10T06:19:04.108Z,46.1
2018-01-10T06:20:06.004Z,46.1
2018-01-10T06:21:07.344Z,46.1
2018-01-10T06:22:08.938Z,46.2
2018-01-10T06:23:10.834Z,46.2
2018-01-10T06:24:12.729Z,46
2018-01-10T06:25:14.347Z,46
2018-01-10T06:26:15.968Z,46.1
2018-01-10T06:27:17.869Z,46.1
2018-01-10T06:28:19.486Z,46.1
2018-01-10T06:29:21.384Z,46
2018-01-10T06:30:22.723Z,46.2
2018-01-10T06:31:24.342Z,46.1
2018-01-10T06:32:25.959Z,46.2
2018-01-10T06:33:27.578Z,46.2
2018-01-10T06:34:29.236Z,46
2018-01-10T06:35:30.589Z,46.2
2018-01-10T06:36:31.633Z,46.2
2018-01-10T06:37:33.231Z,45.8
2018-01-10T06:38:34.552Z,46.2
2018-01-10T06:39:36.171Z,46.2
2018-01-10T06:40:37.512Z,46.2
2018-01-10T06:41:39.416Z,45.8
2018-01-10T06:42:40.729Z,45.8
2018-01-10T06:43:42.627Z,45.9
2018-01-10T06:44:44.529Z,45.8
2018-01-10T06:45:45.874Z,45.9
2018-01-10T06:46:47.490Z,45.8
2018-01-10T06:47:48.833Z,45.9
2018-01-10T06:48:50.757Z,45.9
2018-01-10T06:49:52.834Z,45.9
2018-01-10T06:50:54.825Z,45.9
2018-01-10T06:51:56.719Z,45.9
2018-01-10T06:52:58.317Z,45.9
2018-01-10T06:53:59.951Z,46
2018-01-10T06:55:01.275Z,45.9
2018-01-10T06:56:03.185Z,45.9
2018-01-10T06:57:04.807Z,45.8
2018-01-10T06:58:06.161Z,45.8
2018-01-10T06:59:07.755Z,45.9
2018-01-10T07:00:09.376Z,46
2018-01-10T07:01:11.276Z,46.3
2018-01-10T07:02:12.620Z,46.3
2018-01-10T07:03:14.236Z,46.1
2018-01-10T07:04:15.581Z,46.2
2018-01-10T07:05:17.478Z,46.3
2018-01-10T07:06:19.099Z,46
2018-01-10T07:07:20.802Z,46.2
2018-01-10T07:08:22.703Z,46.3
2018-01-10T07:09:24.024Z,46.5
2018-01-10T07:10:25.343Z,46.2
2018-01-10T07:11:26.960Z,46.2
2018-01-10T07:12:28.857Z,46.2
2018-01-10T07:13:30.478Z,46.4
2018-01-10T07:14:32.078Z,46.5
2018-01-10T07:15:33.978Z,46.4
2018-01-10T07:16:35.876Z,46.4
2018-01-10T07:17:37.495Z,46.6
2018-01-10T07:18:39.396Z,46.4
2018-01-10T07:19:41.295Z,46.4
2018-01-10T07:20:43.196Z,46.5
2018-01-10T07:21:44.819Z,46.2
2018-01-10T07:22:46.722Z,46.3
2018-01-10T07:23:48.345Z,46.5
2018-01-10T07:24:49.944Z,46.3
2018-01-10T07:25:51.874Z,46.3
2018-01-10T07:26:53.497Z,46.3
2018-01-10T07:27:55.399Z,46.4
2018-01-10T07:28:57.025Z,46.4
2018-01-10T07:29:58.674Z,46.4
2018-01-10T07:31:00.581Z,46.3
2018-01-10T07:32:02.256Z,46.5
2018-01-10T07:33:04.188Z,46.3
2018-01-10T07:34:05.814Z,46.2
2018-01-10T07:35:07.435Z,46.5
2018-01-10T07:36:08.791Z,46.3
2018-01-10T07:37:10.134Z,46.3
2018-01-10T07:38:11.466Z,46.3
2018-01-10T07:39:13.087Z,46.6
2018-01-10T07:40:14.717Z,46.5
2018-01-10T07:41:16.324Z,46.5
2018-01-10T07:42:17.927Z,46.8
2018-01-10T07:43:19.545Z,46.6
2018-01-10T07:44:21.169Z,46.8
2018-01-10T07:45:22.797Z,46.5
2018-01-10T07:46:24.424Z,46.5
2018-01-10T07:47:26.322Z,46.5
2018-01-10T07:48:27.944Z,46.6
2018-01-10T07:49:29.846Z,46.5
2018-01-10T07:50:31.182Z,46.5
2018-01-10T07:51:33.081Z,46.6
2018-01-10T07:52:34.713Z,46.8
2018-01-10T07:53:36.059Z,46.7
2018-01-10T07:54:37.719Z,46.5
2018-01-10T07:55:39.063Z,46.7
2018-01-10T07:56:40.978Z,46.6
2018-01-10T07:57:42.878Z,46.5
2018-01-10T07:58:44.504Z,46.5
2018-01-10T07:59:46.128Z,46.7
2018-01-10T08:00:47.170Z,46.6
2018-01-10T08:01:48.493Z,46.6
2018-01-10T08:02:50.117Z,46.6
2018-01-10T08:03:51.764Z,46.9
2018-01-10T08:04:52.844Z,46.8
2018-01-10T08:05:54.468Z,46.7
2018-01-10T08:06:56.373Z,46.7
2018-01-10T08:07:58.272Z,46.9
2018-01-10T08:08:59.616Z,46.8
2018-01-10T08:10:01.253Z,46.7
2018-01-10T08:11:03.154Z,46.7
2018-01-10T08:12:05.057Z,46.8
2018-01-10T08:13:06.963Z,46.9
2018-01-10T08:14:08.582Z,46.9
2018-01-10T08:15:09.632Z,46.9
2018-01-10T08:16:10.692Z,46.8
2018-01-10T08:17:12.116Z,46.9
2018-01-10T08:18:13.785Z,46.8
2018-01-10T08:19:15.696Z,46.9
2018-01-10T08:20:17.596Z,46.8
2018-01-10T08:21:18.641Z,46.9
2018-01-10T08:22:20.268Z,46.8
2018-01-10T08:23:21.916Z,46.9
2018-01-10T08:24:23.817Z,46.7
2018-01-10T08:25:25.423Z,46.7
2018-01-10T08:26:26.746Z,46.8
2018-01-10T08:27:28.373Z,46.9
2018-01-10T08:28:29.973Z,46.9
2018-01-10T08:29:31.591Z,46.8
2018-01-10T08:30:32.940Z,46.6
2018-01-10T08:31:34.572Z,46.7
2018-01-10T08:32:36.187Z,46.8
2018-01-10T08:33:37.811Z,46.7
2018-01-10T08:34:39.433Z,46.7
2018-01-10T08:35:41.335Z,46.6
2018-01-10T08:36:43.236Z,46.7
2018-01-10T08:37:45.133Z,46.7
2018-01-10T08:38:47.035Z,46.6
2018-01-10T08:39:48.636Z,46.7
2018-01-10T08:40:49.960Z,46.7
2018-01-10T08:41:51.279Z,46.8
2018-01-10T08:42:52.898Z,46.6
2018-01-10T08:43:53.946Z,46.8
2018-01-10T08:44:55.568Z,46.5
2018-01-10T08:45:57.165Z,46.6
2018-01-10T08:46:59.065Z,46.6
2018-01-10T08:48:00.694Z,46.6
2018-01-10T08:49:02.314Z,46.7
2018-01-10T08:50:03.936Z,47.1
2018-01-10T08:51:05.557Z,47
2018-01-10T08:52:06.903Z,47
2018-01-10T08:53:08.564Z,47
2018-01-10T08:54:10.465Z,46.9
2018-01-10T08:55:12.064Z,46.9
2018-01-10T08:56:13.386Z,46.9
2018-01-10T08:57:14.984Z,47.1
2018-01-10T08:58:16.608Z,46.8
2018-01-10T08:59:17.935Z,47.1
2018-01-10T09:00:19.833Z,47
2018-01-10T09:01:21.739Z,47
2018-01-10T09:02:23.356Z,47
2018-01-10T09:03:25.256Z,47.1
2018-01-10T09:04:27.202Z,47
2018-01-10T09:05:28.830Z,47
2018-01-10T09:06:30.453Z,46.8
2018-01-10T09:07:32.058Z,47
2018-01-10T09:08:33.673Z,47.1
2018-01-10T09:09:35.572Z,47.1
2018-01-10T09:10:37.175Z,46.8
2018-01-10T09:11:38.521Z,47
2018-01-10T09:12:40.121Z,46.9
2018-01-10T09:13:41.741Z,46.9
2018-01-10T09:14:43.370Z,47
2018-01-10T09:15:44.991Z,47.1
2018-01-10T09:16:46.624Z,47.2
2018-01-10T09:17:48.233Z,47.1
2018-01-10T09:18:49.869Z,46.9
2018-01-10T09:19:51.782Z,47.1
2018-01-10T09:20:53.402Z,46.9
2018-01-10T09:21:55.054Z,47.1
2018-01-10T09:22:56.685Z,47.1
2018-01-10T09:23:58.584Z,47.1
2018-01-10T09:25:00.204Z,47
2018-01-10T09:26:01.833Z,47
2018-01-10T09:27:03.450Z,47.1
2018-01-10T09:28:05.086Z,47.1
2018-01-10T09:29:06.985Z,46.8
2018-01-10T09:30:08.608Z,47.1
2018-01-10T09:31:10.232Z,47.1
2018-01-10T09:32:12.131Z,47.1
2018-01-10T09:33:13.469Z,46.8
2018-01-10T09:34:15.370Z,47.1
2018-01-10T09:35:16.995Z,46.9
2018-01-10T09:36:18.349Z,47.1
2018-01-10T09:37:19.692Z,46.9
2018-01-10T09:38:21.295Z,46.9
2018-01-10T09:39:23.199Z,47.2
2018-01-10T09:40:24.546Z,46.8
2018-01-10T09:41:26.449Z,47.1
2018-01-10T09:42:27.846Z,47.1
2018-01-10T09:43:29.469Z,47
2018-01-10T09:44:30.796Z,47.1
2018-01-10T09:45:32.425Z,47.1
2018-01-10T09:46:34.043Z,47.3
2018-01-10T09:47:35.418Z,47.1
2018-01-10T09:48:36.743Z,47.1
2018-01-10T09:49:38.365Z,47.3
2018-01-10T09:50:39.991Z,47.3
2018-01-10T09:51:41.313Z,47.2
2018-01-10T09:52:42.657Z,47.3
2018-01-10T09:53:44.279Z,47.5
2018-01-10T09:54:46.185Z,47.1
2018-01-10T09:55:47.508Z,47.6
2018-01-10T09:56:48.854Z,47.6
2018-01-10T09:57:50.456Z,47.4
2018-01-10T09:58:52.064Z,47.2
2018-01-10T09:59:53.115Z,47.4
2018-01-10T10:00:54.742Z,47.5
2018-01-10T10:01:56.358Z,47.3
2018-01-10T10:02:58.257Z,47.4
2018-01-10T10:03:59.861Z,47.3
2018-01-10T10:05:01.782Z,47.1
2018-01-10T10:06:03.109Z,47.5
2018-01-10T10:07:04.710Z,47.3
2018-01-10T10:08:06.035Z,47.5
2018-01-10T10:09:07.936Z,47.5
2018-01-10T10:10:09.563Z,47.4
2018-01-10T10:11:11.463Z,47.5
2018-01-10T10:12:12.508Z,47.6
2018-01-10T10:13:14.136Z,47.5
2018-01-10T10:14:15.478Z,47.5
2018-01-10T10:15:16.550Z,47.5
2018-01-10T10:16:18.455Z,47.6
2018-01-10T10:17:19.806Z,47.4
2018-01-10T10:18:21.708Z,47.6
2018-01-10T10:19:23.330Z,47.5
2018-01-10T10:20:25.001Z,47.4
2018-01-10T10:21:26.890Z,47.5
2018-01-10T10:22:28.233Z,47.4
2018-01-10T10:23:29.855Z,47.5
2018-01-10T10:24:31.475Z,47.5
2018-01-10T10:25:33.375Z,47.3
2018-01-10T10:26:34.997Z,47.3
2018-01-10T10:27:36.623Z,47.3
2018-01-10T10:28:38.249Z,47.9
2018-01-10T10:29:39.865Z,47.6
2018-01-10T10:30:41.471Z,47.5
2018-01-10T10:31:43.100Z,47.5
2018-01-10T10:32:44.725Z,47.4
2018-01-10T10:33:46.626Z,47.3
2018-01-10T10:34:48.229Z,47.1
2018-01-10T10:35:50.133Z,47.4
2018-01-10T10:36:51.758Z,47.4
2018-01-10T10:37:53.381Z,47.3
2018-01-10T10:38:55.005Z,47.4
2018-01-10T10:39:56.909Z,47.2
2018-01-10T10:40:57.952Z,47.4
2018-01-10T10:41:59.573Z,47.6
2018-01-10T10:43:01.197Z,47.4
2018-01-10T10:44:02.820Z,47.5
2018-01-10T10:45:04.166Z,47.3
2018-01-10T10:46:05.547Z,47.5
2018-01-10T10:47:07.518Z,47.5
2018-01-10T10:48:08.889Z,47.4
2018-01-10T10:49:09.954Z,47.3
2018-01-10T10:50:11.591Z,47.6
2018-01-10T10:51:12.947Z,47.6
2018-01-10T10:52:14.565Z,47.6
2018-01-10T10:53:15.615Z,47.6
2018-01-10T10:54:17.248Z,47.4
2018-01-10T10:55:18.867Z,47.4
2018-01-10T10:56:20.768Z,47.5
2018-01-10T10:57:21.539Z,47.4
2018-01-10T10:58:22.632Z,47.5
2018-01-10T10:59:24.255Z,47.7
2018-01-10T11:00:25.856Z,47.7
2018-01-10T11:01:27.479Z,47.9
2018-01-10T11:02:28.825Z,47.7
2018-01-10T11:03:29.894Z,47.5
2018-01-10T11:04:31.220Z,47.8
2018-01-10T11:05:32.567Z,47.4
2018-01-10T11:06:34.472Z,47.4
2018-01-10T11:07:36.370Z,47.6
2018-01-10T11:08:37.693Z,47.5
2018-01-10T11:09:39.314Z,47.6
2018-01-10T11:10:40.938Z,47.6
2018-01-10T11:11:42.559Z,47.4
2018-01-10T11:12:43.883Z,47.4
2018-01-10T11:13:45.804Z,47.7
2018-01-10T11:14:47.432Z,47.8
2018-01-10T11:15:49.336Z,47.6
2018-01-10T11:16:50.666Z,47.5
2018-01-10T11:17:51.991Z,47.7
2018-01-10T11:18:53.891Z,47.6
2018-01-10T11:19:55.236Z,47.6
2018-01-10T11:20:56.562Z,47.7
2018-01-10T11:21:58.188Z,47.6
2018-01-10T11:23:00.089Z,47.6
2018-01-10T11:24:01.992Z,47.7
2018-01-10T11:25:03.342Z,47.7
2018-01-10T11:26:05.007Z,47.6
2018-01-10T11:27:06.984Z,47.5
2018-01-10T11:28:08.880Z,47.7
2018-01-10T11:29:10.790Z,47.7
2018-01-10T11:30:12.421Z,47.7
2018-01-10T11:31:14.320Z,47.8
2018-01-10T11:32:16.221Z,47.6
2018-01-10T11:33:18.125Z,47.4
2018-01-10T11:34:19.755Z,47.3
2018-01-10T11:35:21.071Z,47.7
2018-01-10T11:36:22.736Z,48
2018-01-10T11:37:23.821Z,47.7
2018-01-10T11:38:25.144Z,47.7
2018-01-10T11:39:26.490Z,47.7
2018-01-10T11:40:28.392Z,47.3
2018-01-10T11:41:30.295Z,47.7
2018-01-10T11:42:31.622Z,47.7
2018-01-10T11:43:32.684Z,47.9
2018-01-10T11:44:34.585Z,47.6
2018-01-10T11:45:35.650Z,47.2
2018-01-10T11:46:37.004Z,47.9
2018-01-10T11:47:38.330Z,47.4
2018-01-10T11:48:40.228Z,47.9
2018-01-10T11:49:41.297Z,47.7
2018-01-10T11:50:42.349Z,47.6
2018-01-10T11:51:43.976Z,47.5
2018-01-10T11:52:45.881Z,47.5
2018-01-10T11:53:47.224Z,47.8
2018-01-10T11:54:49.183Z,47.8
2018-01-10T11:55:50.802Z,47.9
2018-01-10T11:56:52.705Z,47.7
2018-01-10T11:57:54.331Z,47.9
2018-01-10T11:58:55.969Z,47.8
2018-01-10T11:59:57.634Z,47.5
2018-01-10T12:00:58.977Z,47.8
2018-01-10T12:02:00.602Z,47.9
2018-01-10T12:03:01.967Z,47.9
2018-01-10T12:04:03.592Z,47.4
2018-01-10T12:05:05.231Z,47.8
2018-01-10T12:06:06.828Z,47.7
2018-01-10T12:07:08.581Z,47.4
2018-01-10T12:08:09.621Z,47.5
2018-01-10T12:09:11.213Z,47.4
2018-01-10T12:10:12.534Z,47.7
2018-01-10T12:11:13.908Z,47.6
2018-01-10T12:12:15.531Z,47.7
2018-01-10T12:13:16.854Z,47.7
2018-01-10T12:14:18.757Z,47.4
2018-01-10T12:15:20.657Z,47.3
2018-01-10T12:16:22.557Z,47.4
2018-01-10T12:17:24.155Z,47.6
2018-01-10T12:18:25.472Z,47.5
2018-01-10T12:19:26.820Z,47.7
2018-01-10T12:20:28.721Z,48
2018-01-10T12:21:30.048Z,47.8
2018-01-10T12:22:31.642Z,47.7
2018-01-10T12:23:32.987Z,48.1
2018-01-10T12:24:34.611Z,47.7
2018-01-10T12:25:35.933Z,47.8
2018-01-10T12:26:37.250Z,47.6
2018-01-10T12:27:38.574Z,48
2018-01-10T12:28:40.470Z,47.6
2018-01-10T12:29:42.368Z,48.2
2018-01-10T12:30:44.289Z,47.9
2018-01-10T12:31:45.913Z,47.9
2018-01-10T12:32:47.809Z,47.7
2018-01-10T12:33:48.851Z,47.6
2018-01-10T12:34:50.751Z,47.5
2018-01-10T12:35:52.074Z,47.7
2018-01-10T12:36:53.691Z,47.9
2018-01-10T12:37:55.327Z,48.2
2018-01-10T12:38:56.967Z,47.8
2018-01-10T12:39:58.865Z,47.8
2018-01-10T12:41:00.185Z,47.9
2018-01-10T12:42:01.231Z,47.8
2018-01-10T12:43:03.128Z,47.4
2018-01-10T12:44:04.463Z,47.7
2018-01-10T12:45:06.063Z,47.6
2018-01-10T12:46:07.679Z,47.4
2018-01-10T12:47:09.306Z,47.9
2018-01-10T12:48:10.645Z,47.7
2018-01-10T12:49:12.546Z,47.8
2018-01-10T12:50:14.441Z,47.6
2018-01-10T12:51:15.802Z,47.8
2018-01-10T12:52:17.155Z,47.9
2018-01-10T12:53:19.067Z,47.8
2018-01-10T12:54:20.396Z,48
2018-01-10T12:55:21.717Z,47.3
2018-01-10T12:56:23.611Z,47.8
2018-01-10T12:57:24.959Z,48
2018-01-10T12:58:26.296Z,47.5
2018-01-10T12:59:28.194Z,47.3
2018-01-10T13:00:29.817Z,47.8
2018-01-10T13:01:31.140Z,47.7
2018-01-10T13:02:32.483Z,47.7
2018-01-10T13:03:34.102Z,48
2018-01-10T13:04:35.167Z,47.4
2018-01-10T13:05:36.529Z,47.4
2018-01-10T13:06:37.850Z,47.8
2018-01-10T13:07:38.898Z,47.8
2018-01-10T13:08:40.518Z,48.1
2018-01-10T13:09:42.144Z,47.8
2018-01-10T13:10:43.186Z,47.5
2018-01-10T13:11:44.523Z,47.3
2018-01-10T13:12:46.141Z,47.6
2018-01-10T13:13:47.481Z,47.7
2018-01-10T13:14:48.523Z,47.6
2018-01-10T13:15:49.567Z,47.6
2018-01-10T13:16:50.334Z,47.7
2018-01-10T13:17:51.657Z,47.8
2018-01-10T13:18:52.722Z,47.7
2018-01-10T13:19:54.338Z,47.6
2018-01-10T13:20:55.660Z,47.7
2018-01-10T13:21:57.282Z,47.2
2018-01-10T13:22:58.887Z,47.7
2018-01-10T13:24:00.782Z,47.6
2018-01-10T13:25:02.401Z,47.6
2018-01-10T13:26:03.445Z,47.3
2018-01-10T13:27:05.083Z,47.3
2018-01-10T13:28:06.760Z,47.3
2018-01-10T13:29:08.438Z,47.5
2018-01-10T13:30:09.481Z,47.6
2018-01-10T13:31:10.528Z,47.2
2018-01-10T13:32:12.422Z,47.6
2018-01-10T13:33:14.045Z,47.6
2018-01-10T13:34:15.938Z,47.5
2018-01-10T13:35:17.839Z,47.6
2018-01-10T13:36:18.887Z,47.5
2018-01-10T13:37:20.239Z,47.6
2018-01-10T13:38:22.159Z,47.6
2018-01-10T13:39:23.779Z,47.4
2018-01-10T13:40:25.677Z,47.7
2018-01-10T13:41:27.576Z,47.4
2018-01-10T13:42:28.342Z,47.5
2018-01-10T13:43:29.675Z,47.3
2018-01-10T13:44:30.995Z,47.4